Time;durP1;ratioP1;P1;durP2;ratioP2;P2;SDS_P1;SDS_P2;PMS_P1;PMS_P2;Temp;Humidity;BMP_temperature;BMP_pressure;BME280_temperature;BME280_humidity;BME280_pressure;Samples;Min_cycle;Max_cycle;Signal;HPM_P1;HPM_P2
2022/07/09 00:01:31;;;;;;;4.57;2.97;;;17.50;59.00;;;16.48;60.24;99009.75;5016062;28;20463;-77
2022/07/09 00:03:59;;;;;;;2.93;2.73;;;17.40;59.70;;;16.65;59.92;99004.50;5003312;28;20474;-77
2022/07/09 00:06:28;;;;;;;5.30;3.17;;;17.50;59.80;;;16.66;60.03;99003.44;4999413;28;20462;-75
2022/07/09 00:08:57;;;;;;;3.57;3.27;;;17.50;59.60;;;16.67;60.26;98991.44;4995711;28;20503;-78
2022/07/09 00:11:24;;;;;;;4.13;2.90;;;17.60;60.20;;;16.70;60.92;98996.44;5018229;28;20472;-77
2022/07/09 00:13:52;;;;;;;5.50;3.10;;;17.50;60.50;;;16.56;60.61;98995.81;4996889;28;20450;-78
2022/07/09 00:16:19;;;;;;;5.10;2.80;;;17.50;60.50;;;16.20;60.77;98942.16;4997783;28;20463;-77
2022/07/09 00:18:47;;;;;;;4.80;3.40;;;17.40;60.90;;;16.55;60.77;98998.75;5000636;28;21205;-76
2022/07/09 00:21:15;;;;;;;3.93;2.80;;;17.40;61.00;;;16.49;60.81;98994.22;5016431;28;20800;-76
2022/07/09 00:23:43;;;;;;;4.60;3.10;;;17.40;61.10;;;16.28;61.42;98985.44;5000208;28;20974;-76
2022/07/09 00:26:10;;;;;;;4.00;3.00;;;17.20;61.20;;;16.47;60.86;98990.91;4999948;28;20469;-78
2022/07/09 00:28:38;;;;;;;4.43;2.67;;;17.30;61.30;;;16.39;61.80;99000.22;4998501;28;20541;-78
2022/07/09 00:31:05;;;;;;;3.67;2.80;;;17.20;61.90;;;16.49;61.36;98994.22;4998578;28;20456;-77
2022/07/09 00:33:32;;;;;;;4.57;3.53;;;17.30;61.80;;;16.34;60.84;98990.00;5001460;28;20460;-76
2022/07/09 00:36:00;;;;;;;4.20;3.13;;;17.20;61.70;;;16.36;60.74;98979.69;5001437;28;20466;-77
2022/07/09 00:38:27;;;;;;;3.33;2.97;;;17.20;61.50;;;16.32;60.76;98983.97;5002615;28;20469;-79
2022/07/09 00:40:56;;;;;;;4.27;3.57;;;17.10;61.80;;;16.29;61.61;98985.22;5015277;28;20568;-76
2022/07/09 00:43:24;;;;;;;3.70;3.40;;;17.10;62.00;;;16.26;61.78;98982.13;4996867;28;20890;-77
2022/07/09 00:45:52;;;;;;;3.37;3.10;;;17.10;62.20;;;16.21;61.12;98979.25;4999284;28;20458;-76
2022/07/09 00:48:19;;;;;;;4.73;3.40;;;17.10;62.10;;;16.04;61.61;98976.31;4998533;28;20579;-76
2022/07/09 00:50:47;;;;;;;4.80;3.00;;;17.00;62.10;;;15.91;62.07;98985.47;4997639;28;20456;-77
2022/07/09 00:53:16;;;;;;;4.80;3.20;;;16.80;62.50;;;15.67;63.06;98974.38;4996759;28;20507;-77
2022/07/09 00:55:46;;;;;;;4.47;3.20;;;16.70;63.00;;;15.72;63.54;98972.66;4999456;28;20469;-77
2022/07/09 00:58:17;;;;;;;3.60;2.93;;;16.60;63.50;;;15.72;63.04;98971.81;5011359;28;21041;-74
2022/07/09 01:00:45;;;;;;;5.03;3.30;;;16.70;63.80;;;15.77;63.13;98966.53;5016353;28;20482;-77
2022/07/09 01:03:12;;;;;;;3.90;2.90;;;16.70;63.80;;;15.89;62.82;98966.63;5016243;28;20930;-75
2022/07/09 01:05:40;;;;;;;4.73;3.50;;;16.80;64.10;;;15.92;62.96;98968.06;5009370;28;20487;-75
2022/07/09 01:08:09;;;;;;;5.23;2.87;;;16.80;64.30;;;15.60;63.82;98962.72;5013148;28;20564;-75
2022/07/09 01:10:37;;;;;;;4.10;3.47;;;16.70;64.70;;;15.86;63.65;98972.50;5002287;28;20516;-76
2022/07/09 01:13:05;;;;;;;5.30;3.27;;;16.70;65.10;;;15.61;64.27;98958.94;5017255;28;20499;-74
2022/07/09 01:15:35;;;;;;;5.30;2.90;;;16.60;65.50;;;15.66;64.49;98970.00;4996344;28;20452;-75
2022/07/09 01:18:02;;;;;;;3.90;2.73;;;16.50;66.00;;;15.58;64.58;98973.84;4998786;28;20554;-77
2022/07/09 01:20:31;;;;;;;3.20;2.90;;;16.50;66.30;;;15.67;64.60;98971.66;5000388;28;20475;-76
2022/07/09 01:22:59;;;;;;;6.03;3.47;;;16.50;66.80;;;15.47;65.19;98950.91;4996704;28;20478;-76
2022/07/09 01:25:35;;;;;;;3.20;2.80;;;16.50;67.30;;;15.29;65.79;98955.25;4999097;28;20507;-76
2022/07/09 01:28:05;;;;;;;3.90;3.00;;;16.40;67.40;;;15.41;66.06;98957.25;4994781;28;21261;-78
2022/07/09 01:30:35;;;;;;;6.10;2.80;;;16.30;68.20;;;15.25;66.71;98970.38;5010818;28;20493;-76
2022/07/09 01:33:03;;;;;;;5.00;3.23;;;16.30;68.50;;;15.25;66.40;98970.38;4992900;28;20463;-77
2022/07/09 01:35:32;;;;;;;6.60;3.10;;;16.20;69.00;;;15.49;65.68;98965.13;4994721;28;21095;-75
2022/07/09 01:38:00;;;;;;;3.40;3.10;;;16.30;69.10;;;15.24;67.03;98957.84;4997283;28;20466;-75
2022/07/09 01:40:27;;;;;;;3.40;3.10;;;16.20;69.60;;;15.06;67.77;98960.47;4996797;28;20457;-76
2022/07/09 01:42:54;;;;;;;3.77;3.40;;;16.10;70.30;;;15.06;68.17;98958.59;4997465;28;21069;-75
2022/07/09 01:45:21;;;;;;;3.70;3.27;;;16.00;71.10;;;15.26;67.32;98958.44;4994374;28;20470;-77
2022/07/09 01:47:49;;;;;;;4.37;3.67;;;16.10;71.40;;;15.30;67.23;98956.94;5006178;28;20523;-76
2022/07/09 01:50:16;;;;;;;4.10;3.37;;;16.20;71.60;;;15.22;67.60;98959.09;5006119;28;20778;-76
2022/07/09 01:52:45;;;;;;;3.53;3.23;;;16.20;71.90;;;15.02;68.33;98955.50;5010695;28;21308;-77
2022/07/09 01:55:13;;;;;;;5.77;3.10;;;16.00;72.20;;;15.15;68.19;98953.72;4998612;28;20514;-76
2022/07/09 01:57:40;;;;;;;3.73;2.93;;;16.10;72.80;;;15.23;67.92;98958.88;4995570;28;20452;-77
2022/07/09 02:00:08;;;;;;;3.07;2.87;;;16.10;73.10;;;15.21;68.56;98950.09;5001139;28;20531;-77
2022/07/09 02:02:36;;;;;;;7.50;3.50;;;16.20;73.30;;;15.15;69.31;98942.81;4999850;28;20589;-77
2022/07/09 02:05:04;;;;;;;3.77;3.40;;;16.20;74.10;;;15.08;69.52;98944.75;4999855;28;20559;-76
2022/07/09 02:07:32;;;;;;;4.00;3.17;;;16.10;74.40;;;15.22;69.18;98938.16;4997050;28;20461;-75
2022/07/09 02:10:00;;;;;;;5.30;3.60;;;16.10;74.80;;;15.20;68.82;98934.00;5007730;28;20571;-75
2022/07/09 02:12:29;;;;;;;3.63;3.30;;;16.20;74.60;;;15.11;69.78;98937.00;4994917;28;20486;-77
2022/07/09 02:14:56;;;;;;;5.37;3.37;;;16.10;75.20;;;15.25;68.98;98937.72;4995790;28;21156;-74
2022/07/09 02:17:24;;;;;;;6.40;3.20;;;16.10;75.30;;;15.08;69.38;98939.31;4997054;28;20469;-74
2022/07/09 02:19:51;;;;;;;5.40;3.53;;;16.00;75.40;;;14.95;69.88;98922.06;4993240;28;20484;-75
2022/07/09 02:22:19;;;;;;;7.33;4.00;;;16.00;75.60;;;15.06;69.73;98944.16;4997121;28;20461;-76
2022/07/09 02:24:46;;;;;;;4.13;3.77;;;16.00;76.00;;;14.98;70.15;98948.84;4992303;28;20555;-74
2022/07/09 02:27:15;;;;;;;4.57;3.67;;;16.00;76.40;;;14.97;70.47;98939.00;4993209;28;20466;-76
2022/07/09 02:29:42;;;;;;;4.20;3.80;;;15.90;76.70;;;14.95;70.62;98941.13;4996811;28;20511;-77
2022/07/09 02:32:10;;;;;;;4.90;4.10;;;15.90;76.90;;;14.80;71.27;98943.31;4996978;28;20470;-75
2022/07/09 02:34:38;;;;;;;4.13;3.57;;;15.80;77.50;;;14.89;70.98;98950.16;5008695;28;20469;-76
2022/07/09 02:37:06;;;;;;;7.37;3.60;;;15.80;77.60;;;14.70;71.40;98939.16;4997381;28;20981;-76
2022/07/09 02:39:34;;;;;;;4.60;3.50;;;15.80;77.90;;;14.89;71.46;98954.78;4996329;28;20478;-74
2022/07/09 02:42:01;;;;;;;4.60;3.57;;;15.80;78.20;;;14.72;71.79;98956.13;4997131;28;20480;-74
2022/07/09 02:44:30;;;;;;;8.30;4.20;;;15.80;78.20;;;14.46;72.31;98916.31;4998931;28;20815;-75
2022/07/09 02:46:59;;;;;;;4.93;3.60;;;15.70;78.60;;;14.62;72.07;98946.75;5003115;28;20465;-76
2022/07/09 02:49:26;;;;;;;4.43;3.20;;;15.60;78.70;;;14.65;72.06;98944.44;4996020;28;21035;-77
2022/07/09 02:51:54;;;;;;;5.00;3.97;;;15.60;79.00;;;14.61;72.85;98942.38;5003557;28;20537;-75
2022/07/09 02:54:21;;;;;;;3.20;2.80;;;15.60;79.40;;;14.78;71.77;98948.13;5000973;28;20489;-75
2022/07/09 02:56:48;;;;;;;4.70;3.77;;;15.70;79.10;;;14.65;71.75;98943.59;4994772;28;20452;-77
2022/07/09 02:59:16;;;;;;;5.13;3.77;;;15.70;79.00;;;14.72;71.65;98936.28;5011668;28;20465;-76
2022/07/09 03:01:44;;;;;;;6.53;3.80;;;15.70;79.20;;;14.76;71.78;98942.06;5003569;28;20471;-75
2022/07/09 03:04:12;;;;;;;5.30;3.47;;;15.70;79.10;;;14.87;71.30;98930.50;4992894;28;20560;-75
2022/07/09 03:06:39;;;;;;;6.43;3.63;;;15.80;79.20;;;14.77;72.01;98941.88;5015669;28;20462;-76
2022/07/09 03:09:07;;;;;;;5.40;4.20;;;15.70;79.20;;;14.84;71.91;98941.81;5016093;28;20577;-74
2022/07/09 03:11:34;;;;;;;6.03;3.83;;;15.80;79.30;;;14.72;71.80;98942.53;4998786;28;20465;-76
2022/07/09 03:14:02;;;;;;;4.90;4.40;;;15.80;79.20;;;14.85;71.31;98940.78;4997002;28;20500;-75
2022/07/09 03:16:29;;;;;;;4.57;3.70;;;15.80;79.00;;;14.86;71.35;98942.44;5028618;28;20455;-76
2022/07/09 03:18:58;;;;;;;4.40;3.83;;;15.90;78.80;;;14.63;71.59;98930.19;5019281;28;20463;-76
2022/07/09 03:21:26;;;;;;;5.83;3.77;;;15.80;78.70;;;14.78;71.96;98932.66;5013800;28;20955;-74
2022/07/09 03:23:53;;;;;;;5.93;4.33;;;15.80;79.10;;;14.86;71.60;98929.69;5002603;28;20466;-77
2022/07/09 03:26:20;;;;;;;5.63;3.90;;;15.80;79.30;;;14.97;70.60;98930.84;4999268;28;20535;-76
2022/07/09 03:28:47;;;;;;;5.20;3.87;;;15.90;78.90;;;14.92;70.85;98922.50;5013970;28;20485;-77
2022/07/09 03:31:15;;;;;;;6.33;4.50;;;15.90;78.70;;;14.83;71.25;98918.41;5005494;28;20474;-76
2022/07/09 03:33:42;;;;;;;5.13;4.03;;;15.80;78.70;;;14.97;70.89;98930.00;5018109;28;20453;-75
2022/07/09 03:36:11;;;;;;;9.30;4.57;;;15.90;78.70;;;14.86;70.73;98929.69;5000897;28;20453;-76
2022/07/09 03:38:38;;;;;;;7.47;4.80;;;15.90;78.30;;;14.88;70.66;98926.72;5001892;28;20556;-75
2022/07/09 03:41:06;;;;;;;6.60;4.40;;;15.90;78.50;;;14.86;71.02;98923.38;5005271;28;20465;-75
2022/07/09 03:43:33;;;;;;;8.77;5.20;;;15.90;78.80;;;14.94;71.03;98934.00;4999377;28;20458;-75
2022/07/09 03:46:01;;;;;;;8.40;4.50;;;15.90;78.90;;;14.90;71.14;98929.22;5003499;28;20501;-75
2022/07/09 03:48:28;;;;;;;5.70;4.70;;;15.90;79.10;;;14.96;70.97;98931.06;5018549;28;20566;-77
2022/07/09 03:50:55;;;;;;;8.00;5.30;;;15.90;78.90;;;14.95;71.21;98932.09;5004609;28;20486;-77
2022/07/09 03:53:25;;;;;;;7.93;4.90;;;15.90;78.90;;;15.08;70.30;98931.16;4997332;28;20963;-77
2022/07/09 03:55:52;;;;;;;6.60;4.53;;;16.00;78.50;;;14.94;71.03;98931.28;5002338;28;20542;-76
2022/07/09 03:58:19;;;;;;;6.27;4.80;;;16.00;78.50;;;14.99;71.09;98928.72;5016221;28;20494;-76
2022/07/09 04:00:46;;;;;;;7.13;5.10;;;16.00;78.80;;;15.08;70.89;98931.16;4998872;28;21026;-75
2022/07/09 04:03:14;;;;;;;11.60;5.40;;;16.00;78.70;;;15.29;69.65;98914.44;5000177;28;20455;-75
2022/07/09 04:05:44;;;;;;;5.13;4.53;;;16.10;78.60;;;15.26;69.10;98925.78;4997380;28;20478;-76
2022/07/09 04:08:11;;;;;;;5.20;4.00;;;16.20;77.80;;;15.34;68.95;98926.53;4994547;28;20997;-77
2022/07/09 04:10:40;;;;;;;5.47;4.17;;;16.30;77.40;;;15.38;68.08;98930.47;4998953;28;20977;-78
2022/07/09 04:13:08;;;;;;;6.43;3.70;;;16.30;76.80;;;15.29;67.79;98925.31;4997795;28;20457;-76
2022/07/09 04:15:36;;;;;;;6.30;4.33;;;16.20;76.30;;;15.25;68.06;98926.84;4995158;28;20546;-77
2022/07/09 04:18:03;;;;;;;6.63;3.90;;;16.20;76.30;;;15.27;67.72;98919.28;5000626;28;20976;-77
2022/07/09 04:20:30;;;;;;;4.80;4.27;;;16.30;76.30;;;15.40;67.29;98929.19;4998983;28;20524;-75
2022/07/09 04:22:57;;;;;;;8.30;4.70;;;16.40;76.10;;;15.37;68.18;98936.97;4996003;28;20483;-75
2022/07/09 04:25:25;;;;;;;5.37;3.90;;;16.40;76.20;;;15.34;67.96;98941.00;5012313;28;20992;-77
2022/07/09 04:27:54;;;;;;;5.70;4.27;;;16.30;76.20;;;15.18;68.46;98928.78;5011160;28;20615;-77
2022/07/09 04:30:21;;;;;;;5.03;3.70;;;16.20;76.70;;;15.13;69.10;98934.88;4999647;28;20490;-74
2022/07/09 04:32:48;;;;;;;4.90;4.03;;;16.20;76.90;;;15.48;68.11;98936.22;4997575;28;20470;-77
2022/07/09 04:35:16;;;;;;;6.70;3.93;;;16.20;77.00;;;15.48;68.14;98935.41;5002628;28;21013;-78
2022/07/09 04:37:44;;;;;;;4.90;4.13;;;16.40;76.90;;;15.50;68.14;98939.56;4998431;28;20516;-75
2022/07/09 04:40:13;;;;;;;5.80;4.00;;;16.40;76.90;;;15.30;69.12;98940.59;5012800;28;20468;-74
2022/07/09 04:42:42;;;;;;;5.97;4.07;;;16.40;76.90;;;15.67;68.17;98944.41;5004914;28;20456;-76
2022/07/09 04:45:11;;;;;;;8.67;3.97;;;16.50;77.10;;;15.66;68.15;98943.59;5004460;28;20467;-76
2022/07/09 04:47:39;;;;;;;8.83;4.50;;;16.50;76.80;;;15.57;68.74;98940.34;5001109;28;20473;-76
2022/07/09 04:50:10;;;;;;;7.07;3.90;;;16.60;76.90;;;15.94;67.17;98939.53;5003298;28;20997;-77
2022/07/09 04:52:38;;;;;;;3.90;3.60;;;16.70;76.20;;;16.04;66.41;98939.00;5000973;28;20483;-77
2022/07/09 04:55:06;;;;;;;6.23;3.97;;;16.90;75.60;;;15.89;66.98;98935.81;5001834;28;20466;-77
2022/07/09 04:57:34;;;;;;;3.93;3.20;;;16.80;75.90;;;16.03;66.30;98931.88;5002539;28;20490;-77
2022/07/09 05:00:01;;;;;;;4.90;4.17;;;16.90;75.60;;;16.15;66.21;98931.94;4998877;28;20465;-77
2022/07/09 05:02:30;;;;;;;3.87;3.40;;;17.00;75.70;;;16.14;66.33;98933.81;5005637;28;21085;-77
2022/07/09 05:04:58;;;;;;;5.00;3.50;;;17.00;75.50;;;16.30;65.13;98904.25;5012125;28;20470;-77
2022/07/09 05:07:25;;;;;;;9.80;3.97;;;17.20;75.20;;;16.24;65.07;98927.00;4996524;28;20504;-76
2022/07/09 05:09:53;;;;;;;5.53;3.70;;;17.20;74.70;;;16.67;63.96;98930.56;4980446;28;20477;-75
2022/07/09 05:12:20;;;;;;;6.67;4.40;;;17.40;74.60;;;16.55;64.30;98927.81;4994355;28;20580;-76
2022/07/09 05:14:47;;;;;;;7.40;4.00;;;17.50;74.20;;;16.28;64.73;98925.47;5012599;28;20472;-74
2022/07/09 05:17:15;;;;;;;7.67;4.60;;;17.30;74.00;;;16.48;64.76;98932.56;4997926;28;20814;-75
2022/07/09 05:19:45;;;;;;;4.77;3.50;;;17.30;74.00;;;16.02;65.03;98902.13;5000746;28;20466;-74
2022/07/09 05:22:12;;;;;;;4.80;4.40;;;17.20;74.00;;;16.36;65.63;98941.53;4997519;28;20544;-75
2022/07/09 05:24:40;;;;;;;4.83;4.17;;;17.30;74.40;;;16.20;65.17;98942.16;5008895;28;20454;-76
2022/07/09 05:27:08;;;;;;;5.73;4.30;;;17.30;73.80;;;16.26;64.98;98928.44;4995878;28;20451;-75
2022/07/09 05:29:35;;;;;;;11.43;4.13;;;17.30;74.00;;;16.47;64.22;98928.97;4998782;28;20566;-75
2022/07/09 05:32:03;;;;;;;3.63;3.33;;;17.40;73.60;;;16.56;64.21;98934.94;5000388;28;21051;-74
2022/07/09 05:34:31;;;;;;;3.90;3.60;;;17.50;73.60;;;16.23;64.23;98919.88;5008251;28;20574;-76
2022/07/09 05:37:00;;;;;;;4.10;3.70;;;17.40;73.40;;;16.23;64.79;98928.91;5020342;28;20466;-77
2022/07/09 05:39:27;;;;;;;4.43;4.03;;;17.30;73.40;;;16.34;64.61;98938.19;5005883;28;20460;-74
2022/07/09 05:41:54;;;;;;;7.30;4.13;;;17.30;74.00;;;16.51;64.31;98922.00;5015798;28;20467;-76
2022/07/09 05:44:21;;;;;;;5.17;4.40;;;17.40;73.70;;;16.37;64.51;98917.78;5016266;28;20970;-78
2022/07/09 05:46:49;;;;;;;4.53;4.13;;;17.40;73.50;;;16.63;63.81;98921.19;5017311;28;20467;-73
2022/07/09 05:49:16;;;;;;;4.30;3.80;;;17.40;73.70;;;16.59;63.97;98923.56;5019030;28;20902;-73
2022/07/09 05:51:43;;;;;;;6.00;3.80;;;17.50;73.40;;;16.71;63.93;98920.88;5002209;28;20470;-72
2022/07/09 05:54:12;;;;;;;4.30;3.90;;;17.60;73.50;;;16.89;63.38;98928.13;4995681;28;20470;-73
2022/07/09 05:56:40;;;;;;;4.50;4.20;;;17.60;73.30;;;16.84;63.96;98930.75;5013956;28;20894;-72
2022/07/09 05:59:08;;;;;;;5.87;4.00;;;17.70;73.20;;;17.55;61.47;98936.28;4993475;28;20538;-73
2022/07/09 06:01:38;;;;;;;4.50;4.10;;;18.00;72.60;;;17.37;61.59;98926.31;4995493;28;20517;-73
2022/07/09 06:04:07;;;;;;;7.43;4.20;;;18.40;71.80;;;17.40;61.99;98928.56;4996305;28;20550;-74
2022/07/09 06:06:34;;;;;;;4.23;3.80;;;18.20;72.00;;;17.71;60.74;98917.50;4998644;28;20475;-72
2022/07/09 06:09:02;;;;;;;7.43;3.60;;;18.50;71.50;;;17.99;60.08;98919.44;4998275;28;20466;-74
2022/07/09 06:11:30;;;;;;;4.40;3.67;;;18.80;71.00;;;18.17;59.61;98914.06;4997411;28;20467;-74
2022/07/09 06:14:00;;;;;;;7.03;4.23;;;18.90;70.50;;;17.95;59.80;98917.44;4995724;28;20643;-74
2022/07/09 06:16:27;;;;;;;7.70;4.50;;;18.90;69.90;;;17.75;60.46;98906.94;5002460;28;20512;-73
2022/07/09 06:18:54;;;;;;;6.03;4.10;;;18.80;70.20;;;17.93;60.57;98925.03;4995364;28;20982;-74
2022/07/09 06:21:22;;;;;;;4.03;3.70;;;18.70;70.50;;;18.03;60.04;98919.81;4996270;28;21272;-74
2022/07/09 06:23:49;;;;;;;7.67;4.33;;;18.80;70.50;;;18.39;59.62;98920.50;4996131;28;20980;-73
2022/07/09 06:26:16;;;;;;;4.10;3.73;;;19.30;69.80;;;18.71;58.65;98916.44;4996018;28;20471;-73
2022/07/09 06:28:46;;;;;;;4.77;4.03;;;19.70;69.10;;;19.26;56.93;98925.03;4993718;28;20475;-73
2022/07/09 06:31:13;;;;;;;4.20;3.80;;;20.10;68.10;;;19.37;56.46;98920.53;5002603;28;20576;-73
2022/07/09 06:33:41;;;;;;;4.20;3.90;;;20.20;67.50;;;19.43;55.94;98924.19;4997061;28;20477;-73
2022/07/09 06:36:08;;;;;;;5.67;4.60;;;20.40;66.80;;;19.35;56.51;98923.50;4996286;28;20520;-72
2022/07/09 06:39:44;;;;;;;10.27;4.23;;;20.20;67.10;;;19.18;56.91;98917.22;4997613;28;20457;-73
2022/07/09 06:41:23;;;;;;;4.53;4.13;;;20.10;67.00;;;19.07;57.26;98921.72;5014030;28;20567;-72
2022/07/09 06:43:52;;;;;;;5.27;4.20;;;19.90;67.40;;;18.76;58.47;98919.25;4998917;28;20548;-72
2022/07/09 06:46:19;;;;;;;4.60;4.20;;;19.70;67.60;;;19.04;58.06;98916.75;4996693;28;20462;-73
2022/07/09 06:48:47;;;;;;;3.70;3.20;;;19.80;68.20;;;19.25;57.88;98918.72;5010351;28;20477;-74
2022/07/09 06:51:14;;;;;;;4.10;2.80;;;19.90;68.40;;;19.36;57.59;98916.13;4995854;28;20487;-73
2022/07/09 06:53:41;;;;;;;3.83;2.63;;;20.00;68.30;;;19.31;57.77;98921.50;4995007;28;20545;-73
2022/07/09 06:56:09;;;;;;;4.17;3.20;;;20.00;68.20;;;19.23;57.81;98912.66;4995974;28;20466;-72
2022/07/09 06:58:36;;;;;;;3.20;2.30;;;20.00;68.30;;;19.22;57.71;98923.84;4989373;28;20524;-74
2022/07/09 07:01:05;;;;;;;2.27;1.80;;;20.00;67.90;;;19.35;56.62;98928.19;5011252;28;20461;-73
2022/07/09 07:03:32;;;;;;;3.50;3.20;;;20.10;67.20;;;19.19;58.04;98919.72;4995242;28;20471;-73
2022/07/09 07:06:00;;;;;;;5.47;3.60;;;20.00;68.00;;;19.49;57.54;98925.91;5012081;28;20553;-74
2022/07/09 07:08:27;;;;;;;4.20;3.80;;;20.20;68.00;;;19.55;56.86;98922.13;4996154;28;20763;-72
2022/07/09 07:10:55;;;;;;;4.53;3.43;;;20.30;67.50;;;19.82;56.45;98927.72;4999916;28;20479;-73
2022/07/09 07:13:22;;;;;;;5.77;3.83;;;20.50;67.30;;;20.32;55.03;98925.06;4996528;28;20456;-73
2022/07/09 07:15:50;;;;;;;3.73;3.33;;;20.80;67.00;;;20.66;53.90;98918.53;5001882;28;20533;-75
2022/07/09 07:18:21;;;;;;;4.87;3.53;;;21.30;66.10;;;20.52;53.90;98912.63;5000199;28;20463;-75
2022/07/09 07:20:49;;;;;;;6.90;4.20;;;21.40;65.20;;;20.60;53.74;98922.31;4997634;28;21492;-73
2022/07/09 07:23:16;;;;;;;3.90;3.60;;;21.30;65.20;;;20.63;53.33;98908.91;4993090;28;20970;-73
2022/07/09 07:25:43;;;;;;;3.70;3.40;;;21.40;64.80;;;19.96;55.57;98917.22;4992448;28;20493;-74
2022/07/09 07:28:11;;;;;;;3.23;2.67;;;21.30;65.00;;;20.09;54.53;98871.31;4996312;28;20459;-72
2022/07/09 07:30:38;;;;;;;2.77;2.50;;;21.10;65.10;;;20.38;53.66;98910.28;4994891;28;20483;-75
2022/07/09 07:33:06;;;;;;;4.90;2.63;;;21.20;64.50;;;20.48;53.93;98897.78;4993696;28;20550;-76
2022/07/09 07:35:35;;;;;;;3.93;2.50;;;21.30;64.40;;;20.30;53.96;98905.28;4999799;28;20451;-79
2022/07/09 07:38:03;;;;;;;3.37;2.90;;;21.30;64.20;;;20.42;54.22;98907.06;5001500;28;20538;-74
2022/07/09 07:40:30;;;;;;;2.67;2.20;;;21.20;64.50;;;20.94;52.46;98900.94;5018894;28;20505;-80
2022/07/09 07:42:58;;;;;;;4.10;2.20;;;21.50;64.00;;;20.71;53.09;98893.88;4994602;28;20471;-73
2022/07/09 07:45:25;;;;;;;4.07;1.83;;;21.50;63.80;;;21.09;52.03;98899.41;4996497;28;20517;-73
2022/07/09 07:47:54;;;;;;;4.37;2.73;;;21.80;63.40;;;21.15;51.80;98887.38;5013606;28;20447;-74
2022/07/09 07:50:21;;;;;;;3.13;1.80;;;21.90;63.00;;;20.97;52.10;98896.03;4987091;28;20489;-73
2022/07/09 07:52:50;;;;;;;4.93;2.53;;;21.90;63.00;;;20.72;53.26;98895.53;5003776;28;20461;-73
2022/07/09 07:55:17;;;;;;;2.40;2.20;;;21.60;63.20;;;21.00;52.10;98906.47;5015646;28;20462;-72
2022/07/09 07:57:45;;;;;;;4.10;2.70;;;21.80;63.00;;;20.57;53.36;98882.50;4998610;28;20982;-73
2022/07/09 08:00:13;;;;;;;2.67;2.43;;;21.50;63.30;;;20.87;53.73;98889.38;5005419;28;20473;-74
2022/07/09 08:02:40;;;;;;;8.10;3.20;;;21.60;63.80;;;20.92;53.60;98894.91;5002791;28;20459;-73
2022/07/09 08:05:09;;;;;;;3.07;2.33;;;21.70;63.90;;;21.02;53.10;98888.66;5000026;28;20469;-73
2022/07/09 08:07:37;;;;;;;4.50;3.13;;;21.80;63.70;;;21.18;52.83;98884.09;5018399;28;20483;-72
2022/07/09 08:10:07;;;;;;;3.30;2.70;;;21.90;63.60;;;21.60;51.63;98884.34;5002799;28;20480;-72
2022/07/09 08:12:34;;;;;;;2.97;2.77;;;22.30;63.10;;;22.30;49.98;98867.56;5000993;28;20865;-73
2022/07/09 08:15:02;;;;;;;2.40;2.20;;;22.70;62.50;;;23.19;47.68;98866.50;4980832;28;20552;-75
2022/07/09 08:17:29;;;;;;;2.63;2.30;;;23.60;61.50;;;23.21;47.20;98864.28;4996952;28;20467;-75
2022/07/09 08:19:57;;;;;;;4.00;2.80;;;24.00;60.00;;;23.89;46.07;98872.41;5000646;28;20476;-75
2022/07/09 08:22:24;;;;;;;5.80;2.80;;;24.40;59.70;;;22.96;47.81;98858.81;4999798;28;20466;-76
2022/07/09 08:24:51;;;;;;;4.63;2.70;;;24.10;59.20;;;23.29;47.08;98859.34;4999558;28;21030;-76
2022/07/09 08:27:20;;;;;;;2.30;2.10;;;24.10;59.20;;;23.80;46.36;98860.28;4999430;28;20556;-77
2022/07/09 08:29:48;;;;;;;4.30;2.67;;;24.40;59.10;;;23.59;46.56;98857.63;5000562;28;20465;-75
2022/07/09 08:32:17;;;;;;;6.40;2.27;;;24.50;58.70;;;23.95;46.33;98865.72;4997293;28;20565;-75
2022/07/09 08:34:45;;;;;;;4.37;2.80;;;24.60;59.10;;;23.86;45.87;98862.75;4995942;28;20820;-76
2022/07/09 08:37:12;;;;;;;3.10;2.80;;;24.60;58.10;;;23.60;46.88;98853.75;4997992;28;20594;-76
2022/07/09 08:39:39;;;;;;;3.17;2.87;;;24.40;58.70;;;23.54;46.99;98860.38;4998125;28;20457;-76
2022/07/09 08:42:10;;;;;;;3.10;2.50;;;24.40;58.50;;;23.34;47.39;98857.38;5000748;28;20460;-78
2022/07/09 08:44:42;;;;;;;2.83;2.43;;;24.20;58.60;;;23.44;46.47;98851.03;4999042;28;20488;-74
2022/07/09 08:47:12;;;;;;;3.53;2.37;;;24.20;58.10;;;23.20;47.25;98848.84;5005769;28;20459;-74
2022/07/09 08:49:39;;;;;;;3.30;3.00;;;24.00;58.50;;;23.26;47.28;98840.56;5012775;28;20456;-75
2022/07/09 08:52:08;;;;;;;4.20;2.67;;;23.90;58.40;;;23.98;45.70;98828.47;4999734;28;20487;-75
2022/07/09 08:54:37;;;;;;;2.50;2.30;;;24.40;58.30;;;24.45;44.61;98837.28;4999504;28;20550;-75
2022/07/09 08:57:06;;;;;;;3.10;2.40;;;24.90;57.90;;;24.87;42.99;98827.59;5006421;28;21068;-76
2022/07/09 08:59:33;;;;;;;4.37;2.50;;;25.40;56.90;;;24.70;43.02;98824.41;4996808;28;20526;-75
2022/07/09 09:02:06;;;;;;;2.93;1.90;;;25.40;55.90;;;24.23;43.63;98782.50;5016134;28;20940;-76
2022/07/09 09:04:34;;;;;;;2.33;2.07;;;25.20;55.90;;;24.21;42.85;98823.38;5005031;28;20548;-76
2022/07/09 09:07:14;;;;;;;4.07;2.30;;;25.00;55.10;;;23.86;42.96;98821.34;4997848;28;20806;-75
2022/07/09 09:09:42;;;;;;;3.60;2.20;;;24.70;54.50;;;23.52;44.07;98823.97;4988010;28;20536;-76
2022/07/09 09:12:10;;;;;;;2.33;2.00;;;24.30;55.30;;;23.70;44.22;98815.06;4996131;28;20584;-76
2022/07/09 09:14:37;;;;;;;3.57;2.00;;;24.30;55.40;;;23.79;44.56;98815.31;4996138;28;20464;-76
2022/07/09 09:17:11;;;;;;;3.00;2.40;;;24.50;55.70;;;24.00;43.64;98817.97;4998414;28;20462;-76
2022/07/09 09:19:39;;;;;;;2.13;1.93;;;24.60;55.20;;;23.14;44.12;98813.31;5006285;28;20462;-74
2022/07/09 09:22:07;;;;;;;5.43;2.13;;;24.20;54.60;;;22.77;45.46;98816.13;5015312;28;20598;-75
2022/07/09 09:24:34;;;;;;;2.90;2.30;;;23.60;55.30;;;22.25;47.01;98815.28;4999862;28;20467;-75
2022/07/09 09:27:03;;;;;;;3.70;1.90;;;23.10;55.90;;;22.16;47.92;98815.00;4999424;28;20469;-76
2022/07/09 09:29:30;;;;;;;3.13;2.70;;;23.00;56.50;;;21.75;47.72;98759.88;5003543;28;20552;-76
2022/07/09 09:31:58;;;;;;;4.57;2.03;;;22.90;56.40;;;21.83;47.87;98808.03;5003922;28;20483;-75
2022/07/09 09:34:26;;;;;;;2.10;1.63;;;22.60;56.50;;;21.55;47.65;98813.69;4997531;28;20464;-76
2022/07/09 09:36:55;;;;;;;2.57;2.00;;;22.30;56.10;;;21.46;48.24;98816.13;5004149;28;21041;-76
2022/07/09 09:39:24;;;;;;;2.60;2.40;;;22.20;56.50;;;21.45;48.56;98803.44;5011999;28;20500;-75
2022/07/09 09:41:53;;;;;;;2.60;2.40;;;22.20;56.90;;;21.45;49.29;98822.69;5016252;28;20460;-76
2022/07/09 09:44:23;;;;;;;2.90;2.70;;;22.30;57.30;;;21.52;49.07;98820.53;4998667;28;20494;-75
2022/07/09 09:46:50;;;;;;;3.07;2.00;;;22.30;57.20;;;21.65;48.68;98818.38;5003499;28;20479;-77
2022/07/09 09:49:18;;;;;;;2.77;2.57;;;22.40;57.10;;;21.76;48.67;98814.63;5020339;28;21251;-77
2022/07/09 09:51:55;;;;;;;3.30;2.70;;;22.50;57.20;;;21.96;48.71;98813.00;5009110;28;20502;-72
2022/07/09 09:54:23;;;;;;;4.97;2.83;;;22.70;57.50;;;22.06;48.49;98812.22;4999895;28;20486;-76
2022/07/09 09:56:51;;;;;;;3.00;2.70;;;22.70;57.50;;;22.14;48.17;98806.19;5002406;28;20473;-77
2022/07/09 09:59:18;;;;;;;3.53;2.57;;;22.80;57.40;;;22.24;48.27;98813.63;5018731;28;20447;-78
2022/07/09 10:01:46;;;;;;;3.27;2.50;;;22.90;57.40;;;22.21;48.16;98808.63;5002072;28;20458;-76
2022/07/09 10:04:16;;;;;;;4.17;2.80;;;22.90;57.30;;;22.39;47.53;98806.47;5000877;28;20552;-77
2022/07/09 10:06:44;;;;;;;6.90;2.40;;;23.10;57.00;;;22.94;46.83;98815.00;5000993;28;20453;-71
2022/07/09 10:09:15;;;;;;;2.00;1.90;;;23.40;57.20;;;23.50;45.59;98807.72;5001730;28;20463;-76
2022/07/09 10:11:45;;;;;;;4.77;2.03;;;23.90;56.80;;;23.94;44.62;98810.81;5002547;28;20475;-76
2022/07/09 10:14:18;;;;;;;4.30;2.13;;;24.40;56.30;;;24.17;43.89;98787.25;4997005;28;20459;-75
2022/07/09 10:16:45;;;;;;;3.00;2.17;;;24.80;55.60;;;24.09;42.50;98763.03;5002114;28;20554;-75
2022/07/09 10:19:25;;;;;;;3.03;2.53;;;24.90;54.60;;;24.04;43.41;98785.97;5004255;28;20868;-76
2022/07/09 10:21:55;;;;;;;2.67;2.47;;;24.70;54.80;;;24.03;43.27;98774.06;4998026;28;20465;-75
2022/07/09 10:24:29;;;;;;;2.60;2.00;;;24.80;54.70;;;24.63;42.29;98766.72;5000980;28;20523;-74